Time;durP1;ratioP1;P1;durP2;ratioP2;P2;SDS_P1;SDS_P2;PMS_P1;PMS_P2;Temp;Humidity;BMP_temperature;BMP_pressure;BME280_temperature;BME280_humidity;BME280_pressure;Samples;Min_cycle;Max_cycle;Signal;HPM_P1;HPM_P2
2023/01/08 00:02:24;;;;;;;9.30;8.43;;;8.60;1.00;;;;;;6269811;28;20499;-56
2023/01/08 00:05:27;;;;;;;9.10;8.40;;;8.60;1.00;;;;;;6271690;28;20230;-56
2023/01/08 00:08:32;;;;;;;10.17;9.27;;;8.60;1.00;;;;;;6276107;28;20237;-55
2023/01/08 00:11:35;;;;;;;10.77;9.67;;;8.50;1.00;;;;;;6283810;28;20611;-55
2023/01/08 00:14:38;;;;;;;9.63;8.77;;;8.40;1.00;;;;;;6277647;28;20260;-55
2023/01/08 00:17:41;;;;;;;9.60;8.80;;;8.40;1.00;;;;;;6283352;28;20247;-56
2023/01/08 00:20:45;;;;;;;10.13;9.23;;;8.50;1.00;;;;;;6266860;28;20241;-54
2023/01/08 00:23:50;;;;;;;10.10;9.20;;;8.40;1.00;;;;;;6259616;28;20316;-55
2023/01/08 00:26:53;;;;;;;10.03;9.23;;;8.50;1.00;;;;;;6258218;28;20237;-55
2023/01/08 00:29:56;;;;;;;9.90;9.10;;;8.40;1.00;;;;;;6259215;28;20839;-55
2023/01/08 00:32:59;;;;;;;8.70;8.07;;;8.40;1.00;;;;;;6273963;28;20468;-56
2023/01/08 00:36:08;;;;;;;8.67;8.00;;;8.40;1.00;;;;;;6283760;28;20237;-56
2023/01/08 00:39:12;;;;;;;8.70;8.20;;;8.40;1.00;;;;;;6277742;28;20263;-55
2023/01/08 00:42:15;;;;;;;10.57;9.77;;;8.30;1.00;;;;;;6283719;28;20230;-55
2023/01/08 00:45:18;;;;;;;9.67;8.87;;;8.30;1.00;;;;;;6282978;28;20229;-56
2023/01/08 00:48:22;;;;;;;10.10;9.30;;;8.20;1.00;;;;;;6258716;28;20249;-56
2023/01/08 00:51:25;;;;;;;9.37;8.60;;;8.20;1.00;;;;;;6258640;28;20241;-56
2023/01/08 00:54:29;;;;;;;8.23;7.53;;;8.20;1.00;;;;;;6259062;28;20512;-54
2023/01/08 00:57:34;;;;;;;7.87;7.47;;;8.20;1.00;;;;;;6267299;28;20701;-56
2023/01/08 01:00:37;;;;;;;7.90;7.40;;;8.30;1.00;;;;;;6283347;28;20712;-55
2023/01/08 01:03:40;;;;;;;7.93;7.53;;;8.20;1.00;;;;;;6283476;28;20240;-57
2023/01/08 01:06:43;;;;;;;8.63;7.97;;;8.20;1.00;;;;;;6277525;28;20237;-56
2023/01/08 01:09:48;;;;;;;8.17;7.67;;;8.20;1.00;;;;;;6283302;28;20622;-56
2023/01/08 01:12:51;;;;;;;9.70;8.77;;;8.20;1.00;;;;;;6283145;28;20238;-54
2023/01/08 01:15:57;;;;;;;7.93;7.33;;;8.00;1.00;;;;;;6276908;28;20876;-55
2023/01/08 01:19:01;;;;;;;7.80;7.33;;;8.00;1.00;;;;;;6257941;28;20312;-56
2023/01/08 01:22:04;;;;;;;8.30;7.70;;;8.00;1.00;;;;;;6259254;28;20249;-56
2023/01/08 01:25:10;;;;;;;8.67;7.97;;;7.90;1.00;;;;;;6258446;28;20233;-54
2023/01/08 01:28:13;;;;;;;10.27;9.43;;;7.90;1.00;;;;;;6258061;28;20245;-56
2023/01/08 01:31:16;;;;;;;8.90;8.30;;;7.80;1.00;;;;;;6258396;28;20229;-56
2023/01/08 01:34:19;;;;;;;9.90;9.20;;;8.00;1.00;;;;;;6284054;28;20321;-55
2023/01/08 01:37:22;;;;;;;8.90;8.10;;;7.80;1.00;;;;;;6275172;28;20234;-55
2023/01/08 01:40:27;;;;;;;9.37;8.67;;;7.80;1.00;;;;;;6282313;28;20245;-55
2023/01/08 01:43:39;;;;;;;8.53;8.03;;;7.70;1.00;;;;;;6282992;28;20233;-55
2023/01/08 01:46:42;;;;;;;8.07;7.63;;;7.60;1.00;;;;;;6269789;28;20230;-56
2023/01/08 01:49:54;;;;;;;9.60;9.00;;;7.60;1.00;;;;;;6257425;28;20242;-55
2023/01/08 01:53:02;;;;;;;9.17;8.60;;;7.70;1.00;;;;;;6258451;28;20730;-55
2023/01/08 01:56:08;;;;;;;9.17;8.33;;;7.70;1.00;;;;;;6257493;28;20237;-55
2023/01/08 01:59:12;;;;;;;9.17;8.47;;;7.50;1.00;;;;;;6257713;28;20244;-56
2023/01/08 02:02:16;;;;;;;9.27;8.57;;;7.50;1.00;;;;;;6263446;28;20300;-56
2023/01/08 02:05:20;;;;;;;9.47;8.83;;;7.40;1.00;;;;;;6273750;28;20229;-55
2023/01/08 02:08:33;;;;;;;9.73;9.10;;;7.60;1.00;;;;;;6284626;28;20236;-55
2023/01/08 02:11:45;;;;;;;11.00;9.67;;;7.30;1.00;;;;;;6261989;28;20230;-56
2023/01/08 02:15:03;;;;;;;11.73;10.53;;;7.30;1.00;;;;;;6261826;28;20238;-55
2023/01/08 02:18:10;;;;;;;11.47;10.37;;;7.30;1.00;;;;;;6263141;28;20245;-56
2023/01/08 02:21:18;;;;;;;10.33;9.43;;;7.20;1.00;;;;;;6261245;28;20249;-56
2023/01/08 02:24:30;;;;;;;9.07;8.47;;;7.40;1.00;;;;;;6262241;28;20260;-56
2023/01/08 02:27:37;;;;;;;10.17;9.47;;;7.00;1.00;;;;;;6284976;28;20633;-56
2023/01/08 02:30:41;;;;;;;10.10;9.40;;;7.10;1.00;;;;;;6285686;28;20237;-55
2023/01/08 02:33:45;;;;;;;10.60;9.80;;;7.00;1.00;;;;;;6287334;28;20844;-56
2023/01/08 02:36:50;;;;;;;10.43;9.63;;;7.00;1.00;;;;;;6269684;28;20260;-56
2023/01/08 02:40:15;;;;;;;10.43;9.60;;;7.10;1.00;;;;;;6285996;28;20252;-55
2023/01/08 02:43:26;;;;;;;9.80;9.07;;;6.70;1.00;;;;;;6276505;28;20241;-56
2023/01/08 02:46:34;;;;;;;11.17;10.30;;;7.00;1.00;;;;;;6261952;28;20238;-55
2023/01/08 02:49:41;;;;;;;10.83;10.03;;;7.20;1.00;;;;;;6250292;28;20230;-55
2023/01/08 02:52:52;;;;;;;11.67;10.67;;;6.90;1.00;;;;;;6277034;28;20248;-55
2023/01/08 02:55:58;;;;;;;13.70;12.30;;;6.80;1.00;;;;;;6286077;28;20371;-56
2023/01/08 02:59:05;;;;;;;11.80;10.77;;;6.90;1.00;;;;;;6284778;28;20599;-56
2023/01/08 03:02:08;;;;;;;11.53;10.63;;;6.90;1.00;;;;;;6266139;28;20253;-55
2023/01/08 03:05:20;;;;;;;11.53;10.53;;;6.70;1.00;;;;;;6283934;28;20748;-55
2023/01/08 03:08:23;;;;;;;11.07;10.00;;;6.70;1.00;;;;;;6283860;28;20738;-55
2023/01/08 03:11:33;;;;;;;11.57;10.60;;;6.80;1.00;;;;;;6286754;28;20240;-56
2023/01/08 03:14:43;;;;;;;12.20;11.00;;;6.80;1.00;;;;;;6279225;28;20249;-54
2023/01/08 03:17:50;;;;;;;12.67;11.50;;;6.70;1.00;;;;;;6260841;28;20234;-56
2023/01/08 03:20:53;;;;;;;11.67;10.80;;;6.80;1.00;;;;;;6260367;28;20488;-55
2023/01/08 03:23:57;;;;;;;12.63;11.60;;;6.50;1.00;;;;;;6260715;28;20242;-55
2023/01/08 03:27:04;;;;;;;12.40;11.30;;;6.60;1.00;;;;;;6261346;28;20244;-55
2023/01/08 03:30:11;;;;;;;10.87;9.93;;;6.50;1.00;;;;;;6261112;28;20403;-56
2023/01/08 03:33:16;;;;;;;11.40;10.40;;;6.80;1.00;;;;;;6277503;28;20260;-55
2023/01/08 03:36:24;;;;;;;15.40;11.67;;;6.60;1.00;;;;;;6284904;28;20233;-55
2023/01/08 03:39:31;;;;;;;11.90;11.00;;;6.60;1.00;;;;;;6272841;28;20246;-57
2023/01/08 03:42:34;;;;;;;11.43;10.47;;;6.60;1.00;;;;;;6260937;28;20245;-55
2023/01/08 03:45:42;;;;;;;13.03;11.87;;;6.50;1.00;;;;;;6260973;28;20311;-55
2023/01/08 03:48:46;;;;;;;12.10;11.00;;;6.50;1.00;;;;;;6260155;28;20329;-55
2023/01/08 03:51:50;;;;;;;11.43;10.53;;;6.50;1.00;;;;;;6260411;28;20233;-57
2023/01/08 03:54:53;;;;;;;11.47;10.60;;;6.50;1.00;;;;;;6259978;28;20627;-55
2023/01/08 03:57:56;;;;;;;11.80;10.83;;;6.60;1.00;;;;;;6260555;28;20226;-55
2023/01/08 04:01:01;;;;;;;12.27;11.10;;;6.50;1.00;;;;;;6265544;28;20248;-55
2023/01/08 04:04:04;;;;;;;12.27;11.27;;;6.40;1.00;;;;;;6283363;28;20282;-56
2023/01/08 04:07:09;;;;;;;11.93;10.87;;;6.50;1.00;;;;;;6276483;28;20229;-56
2023/01/08 04:10:12;;;;;;;11.73;10.73;;;6.40;1.00;;;;;;6278540;28;20238;-55
2023/01/08 04:13:15;;;;;;;11.47;10.57;;;6.40;1.00;;;;;;6260432;28;20236;-55
2023/01/08 04:16:20;;;;;;;11.63;10.70;;;6.40;1.00;;;;;;6259992;28;20620;-55
2023/01/08 04:19:23;;;;;;;11.33;10.43;;;6.50;1.00;;;;;;6259386;28;20242;-54
2023/01/08 04:22:26;;;;;;;12.57;11.67;;;6.70;1.00;;;;;;6273800;28;20268;-55
2023/01/08 04:25:29;;;;;;;10.97;10.20;;;6.60;1.00;;;;;;6281766;28;20646;-56
2023/01/08 04:28:32;;;;;;;11.23;10.23;;;6.50;1.00;;;;;;6259436;28;20518;-56
2023/01/08 04:31:39;;;;;;;11.33;10.53;;;6.30;1.00;;;;;;6248866;28;20241;-55
2023/01/08 04:34:42;;;;;;;11.83;10.83;;;6.60;1.00;;;;;;6282298;28;20780;-55
2023/01/08 04:37:45;;;;;;;11.73;10.90;;;6.70;1.00;;;;;;6281066;28;20245;-56
2023/01/08 04:40:48;;;;;;;12.03;10.93;;;6.40;1.00;;;;;;6280217;28;20233;-56
2023/01/08 04:43:51;;;;;;;12.17;11.07;;;6.60;1.00;;;;;;6288728;28;20237;-55
2023/01/08 04:46:56;;;;;;;12.00;11.10;;;6.30;1.00;;;;;;6278541;28;20809;-55
2023/01/08 04:49:59;;;;;;;12.73;11.63;;;6.30;1.00;;;;;;6282765;28;20368;-56
2023/01/08 04:53:02;;;;;;;10.83;10.13;;;6.30;1.00;;;;;;6282467;28;20239;-56
2023/01/08 04:56:07;;;;;;;12.00;11.00;;;6.30;1.00;;;;;;6277652;28;20233;-55
2023/01/08 04:59:10;;;;;;;11.83;10.90;;;6.30;1.00;;;;;;6274506;28;20233;-54
2023/01/08 05:02:15;;;;;;;11.43;10.57;;;6.50;1.00;;;;;;6275968;28;20248;-56
2023/01/08 05:05:18;;;;;;;12.00;11.00;;;6.50;1.00;;;;;;6275614;28;20717;-54
2023/01/08 05:08:21;;;;;;;10.97;10.07;;;6.40;1.00;;;;;;6275648;28;20233;-56
2023/01/08 05:11:25;;;;;;;12.17;11.07;;;6.70;1.00;;;;;;6272860;28;20236;-56
2023/01/08 05:14:28;;;;;;;10.90;10.00;;;6.80;1.00;;;;;;6277158;28;20236;-54
2023/01/08 05:17:32;;;;;;;11.57;10.77;;;6.50;1.00;;;;;;6277598;28;20248;-55
2023/01/08 05:20:35;;;;;;;11.37;10.47;;;6.40;1.00;;;;;;6277786;28;20396;-56
2023/01/08 05:23:39;;;;;;;11.77;10.87;;;6.70;1.00;;;;;;6288772;28;20237;-55
2023/01/08 05:26:42;;;;;;;10.57;9.77;;;6.70;1.00;;;;;;6275289;28;20233;-53
2023/01/08 05:29:45;;;;;;;12.43;11.20;;;6.50;1.00;;;;;;6282978;28;20245;-55
2023/01/08 05:32:49;;;;;;;11.63;10.80;;;6.60;1.00;;;;;;6289300;28;20770;-55
2023/01/08 05:35:52;;;;;;;11.10;10.20;;;6.50;1.00;;;;;;6279660;28;20233;-56
2023/01/08 05:38:55;;;;;;;10.97;10.27;;;6.50;1.00;;;;;;6277167;28;20239;-55
2023/01/08 05:41:58;;;;;;;11.13;10.43;;;6.60;1.00;;;;;;6276785;28;20225;-55
2023/01/08 05:45:02;;;;;;;11.57;10.77;;;6.60;1.00;;;;;;6282386;28;20238;-56
2023/01/08 05:48:07;;;;;;;11.10;10.27;;;6.70;1.00;;;;;;6284610;28;20237;-56
2023/01/08 05:51:10;;;;;;;11.60;10.60;;;6.70;1.00;;;;;;6279069;28;20244;-56
2023/01/08 05:54:13;;;;;;;10.53;9.73;;;6.90;1.00;;;;;;6281806;28;20240;-55
2023/01/08 05:57:16;;;;;;;10.77;9.97;;;6.90;1.00;;;;;;6282721;28;20457;-56
2023/01/08 06:00:19;;;;;;;10.40;9.60;;;6.80;1.00;;;;;;6279940;28;20851;-54
2023/01/08 06:03:24;;;;;;;10.73;9.83;;;7.00;1.00;;;;;;6277249;28;20256;-56
2023/01/08 06:06:27;;;;;;;10.10;9.30;;;7.00;1.00;;;;;;6282317;28;20364;-55
2023/01/08 06:09:30;;;;;;;10.73;9.93;;;6.90;1.00;;;;;;6286227;28;20693;-55
2023/01/08 06:12:33;;;;;;;11.17;10.27;;;6.90;1.00;;;;;;6286304;28;20634;-54
2023/01/08 06:15:37;;;;;;;11.10;10.30;;;6.90;1.00;;;;;;6283566;28;20419;-54
2023/01/08 06:18:42;;;;;;;10.90;9.90;;;6.90;1.00;;;;;;6291925;28;20505;-55
2023/01/08 06:21:45;;;;;;;11.37;10.33;;;7.00;1.00;;;;;;6284796;28;20228;-55
2023/01/08 06:24:48;;;;;;;10.27;9.37;;;6.90;1.00;;;;;;6273982;28;20233;-56
2023/01/08 06:27:51;;;;;;;10.47;9.67;;;6.90;1.00;;;;;;6287212;28;20718;-54
2023/01/08 06:30:57;;;;;;;10.23;9.63;;;7.20;1.00;;;;;;6278386;28;20619;-55
2023/01/08 06:34:01;;;;;;;9.43;8.83;;;7.00;1.00;;;;;;6282303;28;20229;-54
2023/01/08 06:37:04;;;;;;;10.47;9.60;;;7.30;1.00;;;;;;6288003;28;20225;-55
2023/01/08 06:40:08;;;;;;;10.53;9.83;;;6.90;1.00;;;;;;6275985;28;20240;-56
2023/01/08 06:43:11;;;;;;;9.23;8.53;;;7.20;1.00;;;;;;6280925;28;20253;-55
2023/01/08 06:46:20;;;;;;;10.90;9.90;;;7.30;1.00;;;;;;6278091;28;20229;-56
2023/01/08 06:49:25;;;;;;;10.27;9.57;;;7.20;1.00;;;;;;6278179;28;20244;-56
2023/01/08 06:52:28;;;;;;;9.80;8.90;;;7.30;1.00;;;;;;6288284;28;20237;-55
2023/01/08 06:55:31;;;;;;;9.60;8.83;;;7.30;1.00;;;;;;6284916;28;20233;-55
2023/01/08 06:58:34;;;;;;;9.40;8.60;;;7.70;1.00;;;;;;6272256;28;20740;-54
2023/01/08 07:01:37;;;;;;;9.80;9.00;;;7.30;1.00;;;;;;6274783;28;20233;-55
2023/01/08 07:04:41;;;;;;;9.20;8.50;;;7.40;1.00;;;;;;6281611;28;20622;-55
2023/01/08 07:07:45;;;;;;;9.00;8.50;;;7.30;1.00;;;;;;6287065;28;20236;-55
2023/01/08 07:10:48;;;;;;;9.23;8.63;;;7.30;1.00;;;;;;6284451;28;20240;-56
2023/01/08 07:13:52;;;;;;;8.90;8.40;;;7.50;1.00;;;;;;6283217;28;20247;-56
2023/01/08 07:16:55;;;;;;;8.83;8.13;;;7.40;1.00;;;;;;6290820;28;20233;-56
2023/01/08 07:19:59;;;;;;;10.03;9.13;;;7.60;1.00;;;;;;6280544;28;20229;-56
2023/01/08 07:23:02;;;;;;;9.40;8.80;;;7.40;1.00;;;;;;6289984;28;20228;-55
2023/01/08 07:26:07;;;;;;;9.23;8.73;;;7.60;1.00;;;;;;6282071;28;20240;-56
2023/01/08 07:29:10;;;;;;;9.37;8.77;;;7.40;1.00;;;;;;6283646;28;20378;-56
2023/01/08 07:32:13;;;;;;;9.50;8.90;;;7.30;1.00;;;;;;6291935;28;20740;-57
2023/01/08 07:35:18;;;;;;;8.83;8.17;;;7.60;1.00;;;;;;6287766;28;20637;-55
2023/01/08 07:38:21;;;;;;;8.77;8.17;;;7.60;1.00;;;;;;6278100;28;20252;-54
2023/01/08 07:41:24;;;;;;;8.80;8.20;;;7.50;1.00;;;;;;6291033;28;20276;-55
2023/01/08 07:44:27;;;;;;;9.37;8.77;;;7.60;1.00;;;;;;6292780;28;20232;-55
2023/01/08 07:47:30;;;;;;;9.03;8.43;;;7.60;1.00;;;;;;6277066;28;20320;-57
2023/01/08 07:50:36;;;;;;;10.53;9.83;;;7.50;1.00;;;;;;6282130;28;20256;-55
2023/01/08 07:53:39;;;;;;;9.30;8.60;;;7.40;1.00;;;;;;6287936;28;20401;-55
2023/01/08 07:56:42;;;;;;;8.73;8.13;;;7.50;1.00;;;;;;6288277;28;20244;-56
2023/01/08 07:59:45;;;;;;;9.07;8.47;;;7.50;1.00;;;;;;6284648;28;20241;-54
2023/01/08 08:02:48;;;;;;;9.00;8.50;;;7.50;1.00;;;;;;6284484;28;20240;-56
2023/01/08 08:05:53;;;;;;;8.47;7.97;;;7.60;1.00;;;;;;6278818;28;20395;-56
2023/01/08 08:08:58;;;;;;;9.27;8.60;;;7.50;1.00;;;;;;6279824;28;20437;-57
2023/01/08 08:12:01;;;;;;;9.53;8.60;;;7.70;1.00;;;;;;6279932;28;20391;-55
2023/01/08 08:15:07;;;;;;;9.07;8.47;;;7.50;1.00;;;;;;6279543;28;20221;-55
2023/01/08 08:18:10;;;;;;;9.53;8.83;;;7.50;1.00;;;;;;6281719;28;20237;-56
2023/01/08 08:21:15;;;;;;;8.87;8.27;;;7.60;1.00;;;;;;6285258;28;20237;-56
2023/01/08 08:24:18;;;;;;;9.30;8.70;;;7.60;1.00;;;;;;6281948;28;20384;-56
2023/01/08 08:27:22;;;;;;;9.63;8.97;;;7.60;1.00;;;;;;6282215;28;20619;-55
2023/01/08 08:30:26;;;;;;;9.57;8.90;;;7.60;1.00;;;;;;6284764;28;20249;-55
2023/01/08 08:33:30;;;;;;;9.53;8.90;;;7.50;1.00;;;;;;6280815;28;20229;-56
2023/01/08 08:36:34;;;;;;;9.70;9.13;;;7.50;1.00;;;;;;6282088;28;20717;-56
2023/01/08 08:39:37;;;;;;;9.77;9.13;;;7.50;1.00;;;;;;6274841;28;21172;-56
2023/01/08 08:42:40;;;;;;;9.17;8.57;;;7.70;1.00;;;;;;6280297;28;20249;-54
2023/01/08 08:45:44;;;;;;;9.80;8.93;;;7.50;1.00;;;;;;6282036;28;20252;-55
2023/01/08 08:48:47;;;;;;;9.90;9.27;;;7.70;1.00;;;;;;6279459;28;20314;-56
2023/01/08 08:51:52;;;;;;;9.70;8.80;;;7.60;1.00;;;;;;6282689;28;20236;-55
2023/01/08 08:54:55;;;;;;;9.50;8.63;;;7.60;1.00;;;;;;6287435;28;20323;-55
2023/01/08 08:58:04;;;;;;;9.40;8.60;;;7.90;1.00;;;;;;6277854;28;20236;-56
2023/01/08 09:01:07;;;;;;;9.97;9.17;;;7.70;1.00;;;;;;6281306;28;20229;-55
2023/01/08 09:04:10;;;;;;;9.27;8.67;;;7.70;1.00;;;;;;6283901;28;20229;-57
2023/01/08 09:07:14;;;;;;;9.30;8.70;;;7.70;1.00;;;;;;6275400;28;20643;-55
2023/01/08 09:10:18;;;;;;;9.03;8.27;;;7.80;1.00;;;;;;6274354;28;20243;-55
2023/01/08 09:13:21;;;;;;;8.60;8.07;;;7.60;1.00;;;;;;6285749;28;20603;-56
2023/01/08 09:16:24;;;;;;;9.57;8.87;;;7.80;1.00;;;;;;6283666;28;20241;-56
2023/01/08 09:19:27;;;;;;;9.10;8.30;;;7.90;1.00;;;;;;6281367;28;20248;-56
2023/01/08 09:22:31;;;;;;;9.13;8.23;;;7.90;1.00;;;;;;6280789;28;20237;-55
2023/01/08 09:25:34;;;;;;;9.30;8.47;;;7.90;1.00;;;;;;6285214;28;20239;-54
2023/01/08 09:28:38;;;;;;;9.50;8.80;;;8.00;1.00;;;;;;6286802;28;20934;-56
2023/01/08 09:31:41;;;;;;;10.07;9.27;;;8.10;1.00;;;;;;6281478;28;20233;-55
2023/01/08 09:34:44;;;;;;;10.43;9.57;;;8.10;1.00;;;;;;6285312;28;20377;-55
2023/01/08 09:37:51;;;;;;;8.83;8.13;;;8.10;1.00;;;;;;6281221;28;20234;-55
2023/01/08 09:40:58;;;;;;;9.10;8.20;;;8.10;1.00;;;;;;6283566;28;20264;-55
2023/01/08 09:44:03;;;;;;;9.77;8.90;;;8.20;1.00;;;;;;6278076;28;20229;-55
2023/01/08 09:47:16;;;;;;;9.27;8.40;;;8.10;1.00;;;;;;6287788;28;20252;-55
2023/01/08 09:50:22;;;;;;;8.07;7.57;;;8.20;1.00;;;;;;6283608;28;20225;-56
2023/01/08 09:53:27;;;;;;;8.37;7.80;;;8.20;1.00;;;;;;6285176;28;20232;-56
2023/01/08 09:56:32;;;;;;;8.57;8.00;;;8.20;1.00;;;;;;6280915;28;20283;-55
2023/01/08 09:59:36;;;;;;;8.73;8.17;;;8.20;1.00;;;;;;6282165;28;20233;-56
2023/01/08 10:02:40;;;;;;;9.70;9.00;;;8.20;1.00;;;;;;6280028;28;20247;-55
2023/01/08 10:05:43;;;;;;;8.57;7.97;;;8.20;1.00;;;;;;6278103;28;20660;-55
2023/01/08 10:08:49;;;;;;;8.43;7.77;;;8.20;1.00;;;;;;6281677;28;20247;-55
2023/01/08 10:11:55;;;;;;;8.17;7.50;;;8.20;1.00;;;;;;6289014;28;20402;-56
2023/01/08 10:15:01;;;;;;;7.87;7.37;;;8.20;1.00;;;;;;6277988;28;20236;-57
2023/01/08 10:18:06;;;;;;;8.63;8.07;;;8.30;1.00;;;;;;6282921;28;20244;-54
2023/01/08 10:21:13;;;;;;;9.50;8.80;;;8.20;1.00;;;;;;6287589;28;20244;-56
2023/01/08 10:24:30;;;;;;;9.17;8.63;;;8.20;1.00;;;;;;6275963;28;20225;-54
2023/01/08 10:27:44;;;;;;;9.30;8.70;;;8.20;1.00;;;;;;6281089;28;20226;-55
2023/01/08 10:30:48;;;;;;;9.10;8.57;;;8.30;1.00;;;;;;6282111;28;20238;-56
2023/01/08 10:33:51;;;;;;;8.57;8.07;;;8.30;1.00;;;;;;6287980;28;20311;-54
2023/01/08 10:36:55;;;;;;;8.87;8.20;;;8.30;1.00;;;;;;6279916;28;20233;-54
2023/01/08 10:40:07;;;;;;;8.23;7.53;;;8.30;1.00;;;;;;6280679;28;20232;-56
2023/01/08 10:43:15;;;;;;;9.13;8.43;;;8.30;1.00;;;;;;6286071;28;20324;-55
2023/01/08 10:46:22;;;;;;;9.60;8.90;;;8.30;1.00;;;;;;6281220;28;20343;-55
2023/01/08 10:49:33;;;;;;;9.93;9.13;;;8.40;1.00;;;;;;6283897;28;20234;-55
2023/01/08 10:52:36;;;;;;;9.03;8.23;;;8.40;1.00;;;;;;6278919;28;20257;-55
2023/01/08 10:55:40;;;;;;;9.50;8.77;;;8.50;1.00;;;;;;6283417;28;20311;-55
2023/01/08 10:58:43;;;;;;;9.37;8.53;;;8.40;1.00;;;;;;6289644;28;20705;-55
2023/01/08 11:01:48;;;;;;;9.50;8.90;;;8.40;1.00;;;;;;6284691;28;20725;-56
2023/01/08 11:04:52;;;;;;;9.90;9.20;;;8.40;1.00;;;;;;6274075;28;20710;-56
2023/01/08 11:07:58;;;;;;;9.70;8.93;;;8.30;1.00;;;;;;6280561;28;20229;-55
2023/01/08 11:11:03;;;;;;;10.40;9.40;;;8.30;1.00;;;;;;6292797;28;20230;-55
2023/01/08 11:14:15;;;;;;;10.27;9.33;;;8.30;1.00;;;;;;6285407;28;20286;-55
2023/01/08 11:17:18;;;;;;;9.93;9.23;;;8.30;1.00;;;;;;6288790;28;20843;-57
2023/01/08 11:20:23;;;;;;;9.83;9.13;;;8.20;1.00;;;;;;6289112;28;20462;-56
2023/01/08 11:23:27;;;;;;;9.83;9.13;;;8.40;1.00;;;;;;6286550;28;20713;-55
2023/01/08 11:26:34;;;;;;;9.77;9.07;;;8.50;1.00;;;;;;6283065;28;20234;-55
2023/01/08 11:29:44;;;;;;;10.17;9.37;;;8.50;1.00;;;;;;6288691;28;20254;-55
2023/01/08 11:32:50;;;;;;;9.90;9.03;;;8.50;1.00;;;;;;6284203;28;20737;-55
2023/01/08 11:36:00;;;;;;;9.77;8.87;;;8.50;1.00;;;;;;6280580;28;20237;-55
2023/01/08 11:39:03;;;;;;;10.33;9.53;;;8.60;1.00;;;;;;6283181;28;20343;-57
2023/01/08 11:42:34;;;;;;;9.80;9.20;;;8.50;1.00;;;;;;6287906;28;20605;-56
2023/01/08 11:45:51;;;;;;;10.30;9.33;;;8.50;1.00;;;;;;6273520;28;20234;-55
2023/01/08 11:49:16;;;;;;;10.73;9.93;;;8.50;1.00;;;;;;6286928;28;20248;-55
2023/01/08 11:52:34;;;;;;;10.60;9.70;;;8.50;1.00;;;;;;6287602;28;20221;-56
2023/01/08 11:55:53;;;;;;;11.10;10.13;;;8.40;1.00;;;;;;6296483;27;20285;-55
2023/01/08 11:59:10;;;;;;;9.90;9.20;;;8.40;1.00;;;;;;6281332;28;20340;-55
2023/01/08 12:02:22;;;;;;;9.73;9.10;;;8.60;1.00;;;;;;6289424;28;20233;-55
2023/01/08 12:05:31;;;;;;;10.10;9.27;;;8.60;1.00;;;;;;6286523;28;20236;-56
2023/01/08 12:08:43;;;;;;;10.60;9.60;;;8.60;1.00;;;;;;6279227;28;20737;-56
2023/01/08 12:11:52;;;;;;;10.00;9.20;;;8.70;1.00;;;;;;6274396;28;20328;-55
2023/01/08 12:15:07;;;;;;;10.60;9.80;;;8.70;1.00;;;;;;6280759;28;20238;-55
2023/01/08 12:18:29;;;;;;;10.67;9.73;;;8.80;1.00;;;;;;6283176;28;20245;-56
2023/01/08 12:21:34;;;;;;;10.60;9.57;;;8.70;1.00;;;;;;6267108;28;20241;-55
2023/01/08 12:24:53;;;;;;;10.13;9.43;;;8.70;1.00;;;;;;6283665;28;20225;-55
2023/01/08 12:28:07;;;;;;;10.27;9.47;;;8.70;1.00;;;;;;6275516;28;20366;-55
2023/01/08 12:31:35;;;;;;;11.13;10.30;;;8.70;1.00;;;;;;6281321;28;20225;-56
2023/01/08 12:34:46;;;;;;;10.70;9.90;;;8.70;1.00;;;;;;6282901;28;20648;-55
2023/01/08 12:37:54;;;;;;;11.60;10.63;;;8.80;1.00;;;;;;6282466;28;20241;-56
2023/01/08 12:41:03;;;;;;;12.63;11.40;;;8.90;1.00;;;;;;6283048;28;20240;-56
2023/01/08 12:44:10;;;;;;;11.20;10.30;;;8.80;1.00;;;;;;6283164;28;20724;-55
2023/01/08 12:47:21;;;;;;;10.23;9.33;;;8.80;1.00;;;;;;6281181;28;20241;-56
2023/01/08 12:50:41;;;;;;;10.60;9.57;;;8.80;1.00;;;;;;6283468;28;20809;-56
2023/01/08 12:53:53;;;;;;;11.30;10.40;;;8.80;1.00;;;;;;6280295;28;20300;-55
2023/01/08 12:57:06;;;;;;;11.10;9.90;;;8.80;1.00;;;;;;6284262;28;20237;-57
2023/01/08 13:00:19;;;;;;;10.00;9.20;;;8.90;1.00;;;;;;6278469;28;20661;-55
2023/01/08 13:03:26;;;;;;;9.87;8.83;;;8.90;1.00;;;;;;6281577;28;20592;-55
2023/01/08 13:06:30;;;;;;;10.40;9.43;;;8.90;1.00;;;;;;6283128;28;20240;-56
2023/01/08 13:09:33;;;;;;;10.23;9.40;;;8.90;1.00;;;;;;6278822;28;20320;-54
2023/01/08 13:12:39;;;;;;;10.50;9.70;;;8.90;1.00;;;;;;6276270;28;20726;-55
2023/01/08 13:15:43;;;;;;;10.30;9.37;;;9.00;1.00;;;;;;6271116;28;20263;-56
2023/01/08 13:18:59;;;;;;;10.90;10.00;;;9.00;1.00;;;;;;6284496;28;20269;-55
2023/01/08 13:22:02;;;;;;;10.97;10.00;;;8.90;1.00;;;;;;6280706;28;20722;-56
2023/01/08 13:25:29;;;;;;;13.03;10.43;;;8.90;1.00;;;;;;6277559;28;20308;-55
2023/01/08 13:28:43;;;;;;;10.90;10.00;;;8.90;1.00;;;;;;6280836;28;20729;-55
2023/01/08 13:31:46;;;;;;;11.47;10.40;;;9.10;1.00;;;;;;6276573;28;20706;-55
2023/01/08 13:35:01;;;;;;;14.60;12.30;;;8.90;1.00;;;;;;6288131;28;20705;-56
2023/01/08 13:38:16;;;;;;;12.07;10.97;;;8.80;1.00;;;;;;6276634;28;20233;-56
2023/01/08 13:41:27;;;;;;;13.13;11.83;;;8.80;1.00;;;;;;6277817;28;20264;-54
2023/01/08 13:44:33;;;;;;;12.57;11.27;;;8.80;1.00;;;;;;6281662;28;20399;-55
2023/01/08 13:47:42;;;;;;;11.10;10.30;;;8.70;1.00;;;;;;6271661;28;20222;-54
2023/01/08 13:50:47;;;;;;;11.57;10.57;;;8.70;1.00;;;;;;6274175;28;20617;-55
2023/01/08 13:53:50;;;;;;;11.33;10.30;;;8.60;1.00;;;;;;6281881;28;20240;-55
2023/01/08 13:57:02;;;;;;;11.43;10.50;;;8.60;1.00;;;;;;6282577;28;20245;-57
2023/01/08 14:00:08;;;;;;;12.80;11.70;;;8.50;1.00;;;;;;6284765;28;20237;-56
2023/01/08 14:03:22;;;;;;;12.83;11.57;;;8.50;1.00;;;;;;6286828;28;20729;-54
2023/01/08 14:06:28;;;;;;;12.63;11.50;;;8.50;1.00;;;;;;6283159;28;20237;-56
2023/01/08 14:09:31;;;;;;;11.20;10.30;;;8.50;1.00;;;;;;6274669;28;20241;-55
2023/01/08 14:12:36;;;;;;;12.13;10.97;;;8.50;1.00;;;;;;6291595;28;20245;-54
2023/01/08 14:15:39;;;;;;;10.93;10.10;;;8.50;1.00;;;;;;6272517;28;20602;-56
2023/01/08 14:18:43;;;;;;;11.43;10.43;;;8.50;1.00;;;;;;6287695;28;20229;-55
2023/01/08 14:21:50;;;;;;;12.27;11.27;;;8.50;1.00;;;;;;6290224;28;20233;-54
2023/01/08 14:24:56;;;;;;;12.50;11.40;;;8.60;1.00;;;;;;6273538;28;20234;-56
2023/01/08 14:28:01;;;;;;;12.53;11.43;;;8.40;1.00;;;;;;6295217;28;20329;-56
2023/01/08 14:31:04;;;;;;;11.83;10.83;;;8.40;1.00;;;;;;6289893;28;20705;-56
2023/01/08 14:34:08;;;;;;;12.13;10.83;;;8.40;1.00;;;;;;6284314;28;20236;-56
2023/01/08 14:37:15;;;;;;;12.03;11.03;;;8.40;1.00;;;;;;6286217;28;20709;-56
2023/01/08 14:40:29;;;;;;;11.90;10.90;;;8.40;1.00;;;;;;6276034;28;20737;-56
2023/01/08 14:43:38;;;;;;;11.57;10.67;;;8.40;1.00;;;;;;6283179;28;20302;-56
2023/01/08 14:46:44;;;;;;;13.97;12.57;;;8.40;1.00;;;;;;6277198;28;20245;-56
2023/01/08 14:49:51;;;;;;;14.47;12.43;;;8.40;1.00;;;;;;6278413;28;20245;-55
2023/01/08 14:53:00;;;;;;;12.70;11.60;;;8.40;1.00;;;;;;6281190;28;20249;-55
2023/01/08 14:56:05;;;;;;;13.93;12.63;;;8.40;1.00;;;;;;6280722;28;20229;-55
2023/01/08 14:59:10;;;;;;;12.20;11.27;;;8.30;1.00;;;;;;6284988;28;20234;-60
2023/01/08 15:02:22;;;;;;;13.93;12.67;;;8.30;1.00;;;;;;6285909;28;20386;-54
2023/01/08 15:05:28;;;;;;;13.90;12.70;;;8.30;1.00;;;;;;6276110;28;20252;-56
2023/01/08 15:08:38;;;;;;;15.40;13.70;;;8.30;1.00;;;;;;6278964;28;20252;-56
2023/01/08 15:11:49;;;;;;;15.40;13.83;;;8.30;1.00;;;;;;6283946;28;20229;-55
2023/01/08 15:14:54;;;;;;;17.63;15.37;;;8.30;1.00;;;;;;6287144;28;20245;-56
2023/01/08 15:17:57;;;;;;;17.00;15.23;;;8.40;1.00;;;;;;6289761;28;20655;-55
2023/01/08 15:21:01;;;;;;;14.80;13.30;;;8.30;1.00;;;;;;6281924;28;20237;-54
2023/01/08 15:24:07;;;;;;;15.07;13.57;;;8.30;1.00;;;;;;6281255;28;20237;-56
2023/01/08 15:27:19;;;;;;;15.97;14.37;;;8.40;1.00;;;;;;6284500;28;20229;-55
2023/01/08 15:30:27;;;;;;;15.00;13.57;;;8.40;1.00;;;;;;6281017;28;20777;-56
2023/01/08 15:33:30;;;;;;;14.37;12.97;;;8.20;1.00;;;;;;6283134;28;20236;-55
2023/01/08 15:36:33;;;;;;;14.33;13.03;;;8.40;1.00;;;;;;6281294;28;20237;-55
2023/01/08 15:39:37;;;;;;;15.43;13.83;;;8.20;1.00;;;;;;6280376;28;20759;-55
2023/01/08 15:46:00;;;;;;;14.53;13.20;;;8.10;1.00;;;;;;6281556;28;20240;-56
2023/01/08 15:49:04;;;;;;;14.93;13.43;;;8.10;1.00;;;;;;6281531;28;20229;-55
2023/01/08 15:52:09;;;;;;;15.27;13.87;;;8.10;1.00;;;;;;6283600;28;20731;-56
2023/01/08 15:55:18;;;;;;;15.30;14.07;;;8.10;1.00;;;;;;6281794;28;20251;-56
2023/01/08 15:58:21;;;;;;;16.13;14.63;;;8.10;1.00;;;;;;6276180;28;20230;-56
2023/01/08 16:01:26;;;;;;;17.03;14.50;;;8.10;1.00;;;;;;6276758;28;20229;-56
2023/01/08 16:04:29;;;;;;;15.13;13.63;;;8.10;1.00;;;;;;6275010;28;20233;-56
2023/01/08 16:07:32;;;;;;;16.03;14.33;;;8.10;1.00;;;;;;6281710;28;20244;-56
2023/01/08 16:10:37;;;;;;;15.67;14.07;;;8.10;1.00;;;;;;6277334;28;20229;-55
2023/01/08 16:13:40;;;;;;;15.77;14.37;;;8.10;1.00;;;;;;6280998;28;20238;-55
2023/01/08 16:16:43;;;;;;;13.50;12.33;;;8.10;1.00;;;;;;6292295;28;20605;-55
2023/01/08 16:19:47;;;;;;;15.40;14.00;;;8.00;1.00;;;;;;6290290;28;20328;-55
2023/01/08 16:22:50;;;;;;;13.43;12.23;;;8.00;1.00;;;;;;6272492;28;20349;-56
2023/01/08 16:25:55;;;;;;;14.40;13.07;;;8.00;1.00;;;;;;6283277;28;20937;-56